createdAt,value
2022-07-29T00:00:17.725Z,81.8
2022-07-29T00:05:19.475Z,81.8
2022-07-29T00:10:19.417Z,81.6
2022-07-29T00:15:16.446Z,81.5
2022-07-29T00:20:19.429Z,81.4
2022-07-29T00:25:16.348Z,81.3
2022-07-29T00:30:20.766Z,81.3
2022-07-29T00:35:19.358Z,81.2
2022-07-29T00:40:16.417Z,81.2
2022-07-29T00:45:19.422Z,81.1
2022-07-29T00:50:19.396Z,81.1
2022-07-29T00:55:16.435Z,81.0
2022-07-29T01:00:19.419Z,80.9
2022-07-29T01:05:20.634Z,80.9
2022-07-29T01:10:19.394Z,80.8
2022-07-29T01:15:16.497Z,80.7
2022-07-29T01:20:16.475Z,80.6
2022-07-29T01:25:19.450Z,80.6
2022-07-29T01:30:19.486Z,80.5
2022-07-29T01:35:19.403Z,80.5
2022-07-29T01:40:20.545Z,80.4
2022-07-29T01:45:16.461Z,80.3
2022-07-29T01:50:19.541Z,80.2
2022-07-29T01:55:19.450Z,80.2
2022-07-29T02:00:19.443Z,80.2
2022-07-29T02:05:19.526Z,80.1
2022-07-29T02:10:16.461Z,80.0
2022-07-29T02:15:20.778Z,79.8
2022-07-29T02:20:19.437Z,79.7
2022-07-29T02:25:19.433Z,79.5
2022-07-29T02:30:16.493Z,79.5
2022-07-29T02:35:19.594Z,79.3
2022-07-29T02:40:19.510Z,79.2
2022-07-29T02:45:16.478Z,79.2
2022-07-29T02:50:20.679Z,79.0
2022-07-29T02:55:19.428Z,78.9
2022-07-29T03:00:16.464Z,78.7
2022-07-29T03:05:19.507Z,78.7
2022-07-29T03:10:19.447Z,78.6
2022-07-29T03:15:19.447Z,78.5
2022-07-29T03:20:16.508Z,78.4
2022-07-29T03:25:20.685Z,78.3
2022-07-29T03:30:21.919Z,78.1
2022-07-29T03:35:19.470Z,77.9
2022-07-29T03:40:16.488Z,77.8
2022-07-29T03:45:16.574Z,77.6
2022-07-29T03:50:19.493Z,77.4
2022-07-29T03:55:19.472Z,77.2
2022-07-29T04:00:19.937Z,77.0
2022-07-29T04:05:18.758Z,76.9
2022-07-29T04:10:15.762Z,76.7
2022-07-29T04:15:18.761Z,76.6
2022-07-29T04:20:18.772Z,76.5
2022-07-29T04:25:15.809Z,76.4
2022-07-29T04:30:18.758Z,76.3
2022-07-29T04:35:19.845Z,76.2
2022-07-29T04:40:15.771Z,76.2
2022-07-29T04:45:22.249Z,76.1
2022-07-29T04:50:18.889Z,76.1
2022-07-29T04:55:18.797Z,76.0
2022-07-29T05:00:18.781Z,76.0
2022-07-29T05:05:15.812Z,75.9
2022-07-29T05:10:19.963Z,75.8
2022-07-29T05:15:18.755Z,75.7
2022-07-29T05:20:18.742Z,75.7
2022-07-29T05:25:15.796Z,75.7
2022-07-29T05:30:18.821Z,75.6
2022-07-29T05:35:18.773Z,75.6
2022-07-29T05:40:18.760Z,75.5
2022-07-29T05:45:19.835Z,75.5
2022-07-29T05:50:15.786Z,75.4
2022-07-29T05:55:15.799Z,75.3
2022-07-29T06:00:15.800Z,75.3
2022-07-29T06:05:18.825Z,75.2
2022-07-29T06:10:18.762Z,75.1
2022-07-29T06:15:15.817Z,75.0
2022-07-29T06:20:20.058Z,75.0
2022-07-29T06:25:18.824Z,74.9
2022-07-29T06:30:16.117Z,74.8
2022-07-29T06:35:54.939Z,74.8
2022-07-29T06:40:18.800Z,74.7
2022-07-29T06:45:18.811Z,74.7
2022-07-29T06:50:15.873Z,74.7
2022-07-29T06:55:25.345Z,74.7
2022-07-29T07:00:18.784Z,74.7
2022-07-29T07:05:18.877Z,74.7
2022-07-29T07:10:18.791Z,74.7
2022-07-29T07:15:18.854Z,74.7
2022-07-29T07:20:18.805Z,74.6
2022-07-29T07:25:15.853Z,74.6
2022-07-29T07:30:20.117Z,74.5
2022-07-29T07:35:18.846Z,74.4
2022-07-29T07:40:18.540Z,74.4
2022-07-29T07:45:18.897Z,74.3
2022-07-29T07:50:19.466Z,74.3
2022-07-29T07:55:18.794Z,74.2
2022-07-29T08:00:18.843Z,74.2
2022-07-29T08:05:20.075Z,74.1
2022-07-29T08:10:18.876Z,74.0
2022-07-29T08:15:15.920Z,74.0
2022-07-29T08:20:18.853Z,73.9
2022-07-29T08:25:16.958Z,73.8
2022-07-29T08:30:18.871Z,73.7
2022-07-29T08:35:18.857Z,73.7
2022-07-29T08:40:20.020Z,73.6
2022-07-29T08:45:18.863Z,73.5
2022-07-29T08:50:18.890Z,73.5
2022-07-29T08:55:21.304Z,73.5
2022-07-29T09:00:18.909Z,73.4
2022-07-29T09:05:18.901Z,73.4
2022-07-29T09:10:18.881Z,73.4
2022-07-29T09:15:20.030Z,73.4
2022-07-29T09:20:15.907Z,73.4
2022-07-29T09:25:18.851Z,73.4
2022-07-29T09:30:15.904Z,73.4
2022-07-29T09:35:18.936Z,73.4
2022-07-29T09:40:18.859Z,73.4
2022-07-29T09:45:15.896Z,73.4
2022-07-29T09:50:20.765Z,73.4
2022-07-29T09:55:19.982Z,73.4
2022-07-29T10:00:18.936Z,73.4
2022-07-29T10:05:18.874Z,73.4
2022-07-29T10:10:18.922Z,73.4
2022-07-29T10:15:15.921Z,73.4
2022-07-29T10:20:18.940Z,73.4
2022-07-29T10:25:17.257Z,73.4
2022-07-29T10:30:15.919Z,73.4
2022-07-29T10:35:18.955Z,73.4
2022-07-29T10:40:18.993Z,73.5
2022-07-29T10:45:15.952Z,73.5
2022-07-29T10:50:18.957Z,73.5
2022-07-29T10:55:20.021Z,73.6
2022-07-29T11:00:17.018Z,73.7
2022-07-29T11:05:18.967Z,73.7
2022-07-29T11:10:18.914Z,73.9
2022-07-29T11:15:15.952Z,74.1
2022-07-29T11:20:18.895Z,74.3
2022-07-29T11:25:18.891Z,74.5
2022-07-29T11:30:17.215Z,74.8
2022-07-29T11:35:37.608Z,75.0
2022-07-29T11:40:18.950Z,75.4
2022-07-29T11:46:24.962Z,75.7
2022-07-29T11:50:18.936Z,76.0
2022-07-29T11:55:18.913Z,76.3
2022-07-29T12:00:18.549Z,76.6
2022-07-29T12:05:35.912Z,77.2
2022-07-29T12:10:20.138Z,77.7
2022-07-29T12:15:15.936Z,78.1
2022-07-29T12:20:18.952Z,78.4
2022-07-29T12:25:34.693Z,78.8
2022-07-29T12:30:18.916Z,79.1
2022-07-29T12:35:18.935Z,79.6
2022-07-29T12:40:17.203Z,80.1
2022-07-29T12:45:19.033Z,80.4
2022-07-29T12:50:22.119Z,80.7
2022-07-29T12:55:16.041Z,80.9
2022-07-29T13:00:18.981Z,81.1
2022-07-29T13:05:18.957Z,81.5
2022-07-29T13:10:15.989Z,82.2
2022-07-29T13:15:17.279Z,82.5
2022-07-29T13:20:15.999Z,83.7
2022-07-29T13:25:18.990Z,83.6
2022-07-29T13:30:18.977Z,83.2
2022-07-29T13:35:18.945Z,82.8
2022-07-29T13:40:15.998Z,83.4
2022-07-29T13:45:20.310Z,83.6
2022-07-29T13:50:19.043Z,84.5
2022-07-29T13:55:15.983Z,83.9
2022-07-29T14:00:19.011Z,83.7
2022-07-29T14:05:16.002Z,83.2
2022-07-29T14:10:20.245Z,83.3
2022-07-29T14:15:15.991Z,83.6
2022-07-29T14:20:20.272Z,83.6
2022-07-29T14:25:18.970Z,83.8
2022-07-29T14:30:16.005Z,84.4
2022-07-29T14:35:16.010Z,83.9
2022-07-29T14:40:19.026Z,84.0
2022-07-29T14:45:16.010Z,85.0
2022-07-29T14:50:29.885Z,85.8
2022-07-29T14:55:19.990Z,85.2
2022-07-29T15:00:19.025Z,84.9
2022-07-29T15:05:19.012Z,85.4
2022-07-29T15:10:19.008Z,85.9
2022-07-29T15:15:18.986Z,86.0
2022-07-29T15:20:19.016Z,86.1
2022-07-29T15:25:16.027Z,86.9
2022-07-29T15:30:32.598Z,86.8
2022-07-29T15:35:19.024Z,86.8
2022-07-29T15:40:16.030Z,87.3
2022-07-29T15:45:19.028Z,87.5
2022-07-29T15:50:19.056Z,87.3
2022-07-29T15:55:16.596Z,87.6
2022-07-29T16:00:19.069Z,88.0
2022-07-29T16:05:20.149Z,87.0
2022-07-29T16:10:16.080Z,86.8
2022-07-29T16:15:19.255Z,88.0
2022-07-29T16:20:16.066Z,87.8
2022-07-29T16:25:16.071Z,88.5
2022-07-29T16:30:19.087Z,88.1
2022-07-29T16:35:16.085Z,88.5
2022-07-29T16:40:17.275Z,88.0
2022-07-29T16:45:16.067Z,88.1
2022-07-29T16:50:19.051Z,89.1
2022-07-29T16:55:19.067Z,89.5
2022-07-29T17:00:19.044Z,89.4
2022-07-29T17:05:19.024Z,88.9
2022-07-29T17:10:20.256Z,89.9
2022-07-29T17:15:19.061Z,89.3
2022-07-29T17:20:19.084Z,89.2
2022-07-29T17:25:20.369Z,89.0
2022-07-29T17:30:16.077Z,90.2
2022-07-29T17:35:15.888Z,89.9
2022-07-29T17:40:19.102Z,89.7
2022-07-29T17:45:20.349Z,89.2
2022-07-29T17:50:19.059Z,89.7
2022-07-29T17:55:19.059Z,90.1
2022-07-29T18:00:19.133Z,89.5
2022-07-29T18:05:19.050Z,89.6
2022-07-29T18:10:19.059Z,90.2
2022-07-29T18:15:16.174Z,90.7
2022-07-29T18:20:20.385Z,90.4
2022-07-29T18:25:19.110Z,89.6
2022-07-29T18:30:19.079Z,89.5
2022-07-29T18:35:19.131Z,90.4
2022-07-29T18:40:19.084Z,90.0
2022-07-29T18:45:19.610Z,89.6
2022-07-29T18:50:19.140Z,89.6
2022-07-29T18:55:20.341Z,89.8
2022-07-29T19:00:19.141Z,90.4
2022-07-29T19:05:19.076Z,90.1
2022-07-29T19:10:19.091Z,90.4
2022-07-29T19:15:20.447Z,90.3
2022-07-29T19:20:19.139Z,89.9
2022-07-29T19:25:16.184Z,90.0
2022-07-29T19:30:17.315Z,90.6
2022-07-29T19:35:19.182Z,90.1
2022-07-29T19:40:19.158Z,89.8
2022-07-29T19:45:19.089Z,89.8
2022-07-29T19:50:19.140Z,89.6
2022-07-29T19:55:19.127Z,89.8
2022-07-29T20:00:21.058Z,89.8
2022-07-29T20:05:19.110Z,89.8
2022-07-29T20:10:19.175Z,90.3
2022-07-29T20:15:19.141Z,90.2
2022-07-29T20:20:19.136Z,89.8
2022-07-29T20:25:19.121Z,90.1
2022-07-29T20:30:19.174Z,90.4
2022-07-29T20:35:20.482Z,90.3
2022-07-29T20:40:19.118Z,90.0
2022-07-29T20:45:19.168Z,89.8
2022-07-29T20:50:19.201Z,89.5
2022-07-29T20:55:16.200Z,89.6
2022-07-29T21:00:19.193Z,89.9
2022-07-29T21:05:19.124Z,89.8
2022-07-29T21:10:17.501Z,89.7
2022-07-29T21:15:19.162Z,89.4
2022-07-29T21:20:16.268Z,89.2
2022-07-29T21:25:19.174Z,89.6
2022-07-29T21:30:19.213Z,89.9
2022-07-29T21:36:02.151Z,90.0
2022-07-29T21:40:20.406Z,89.3
2022-07-29T21:45:16.281Z,88.9
2022-07-29T21:50:16.192Z,88.5
2022-07-29T21:55:19.411Z,88.7
2022-07-29T22:00:16.214Z,88.8
2022-07-29T22:05:19.185Z,89.0
2022-07-29T22:10:19.209Z,89.2
2022-07-29T22:15:20.348Z,89.0
2022-07-29T22:20:19.208Z,88.8
2022-07-29T22:25:19.166Z,88.7
2022-07-29T22:30:19.197Z,88.9
2022-07-29T22:35:16.337Z,88.8
2022-07-29T22:40:19.357Z,88.8
2022-07-29T22:45:16.294Z,88.6
2022-07-29T22:50:20.627Z,88.4
2022-07-29T22:55:19.242Z,88.3
2022-07-29T23:00:19.250Z,88.3
2022-07-29T23:05:19.227Z,88.3
2022-07-29T23:10:16.233Z,88.3
2022-07-29T23:15:19.212Z,88.2
2022-07-29T23:20:19.244Z,88.2
2022-07-29T23:25:17.454Z,88.1
2022-07-29T23:30:16.275Z,88.1
2022-07-29T23:35:16.248Z,88.1
2022-07-29T23:40:19.263Z,88.0
2022-07-29T23:45:19.224Z,87.9
2022-07-29T23:50:16.252Z,87.7
2022-07-29T23:55:37.015Z,87.5
